Time;durP1;ratioP1;P1;durP2;ratioP2;P2;SDS_P1;SDS_P2;PMS_P1;PMS_P2;Temp;Humidity;BMP_temperature;BMP_pressure;BME280_temperature;BME280_humidity;BME280_pressure;Samples;Min_cycle;Max_cycle;Signal;HPM_P1;HPM_P2
2021/12/15 00:00:20;;;;;;;;;;;5.00;99.90;;;4.93;69.67;99789.91;6017383;23;20287;-79
2021/12/15 00:03:05;;;;;;;;;;;5.10;99.90;;;4.89;69.74;99794.06;6053809;23;19936;-79
2021/12/15 00:05:31;;;;;;;;;;;5.00;99.90;;;4.99;70.05;99791.75;6016910;23;20008;-79
2021/12/15 00:07:58;;;;;;;;;;;5.10;99.90;;;4.94;70.47;99791.56;6039756;23;19928;-79
2021/12/15 00:10:24;;;;;;;;;;;5.10;99.90;;;4.93;70.12;99797.97;6040134;23;19922;-79
2021/12/15 00:12:51;;;;;;;;;;;5.20;99.90;;;4.82;70.33;99798.63;6040285;23;19957;-79
2021/12/15 00:15:18;;;;;;;;;;;5.10;99.90;;;4.89;69.94;99804.81;6040530;23;20008;-79
2021/12/15 00:17:44;;;;;;;;;;;5.10;99.90;;;4.89;69.94;99799.44;6016947;23;19937;-79
2021/12/15 00:20:12;;;;;;;;;;;5.00;99.90;;;4.91;70.24;99799.22;6063710;23;20393;-79
2021/12/15 00:22:39;;;;;;;;;;;5.00;99.90;;;4.95;70.78;99803.16;6041256;23;19922;-79
2021/12/15 00:25:05;;;;;;;;;;;5.00;99.90;;;4.99;70.76;99799.81;6016020;23;19928;-79
2021/12/15 00:27:31;;;;;;;;;;;5.10;99.90;;;5.03;70.39;99797.53;6017315;23;19945;-79
2021/12/15 00:29:57;;;;;;;;;;;5.10;99.90;;;5.17;70.36;99795.63;6063930;23;19972;-79
2021/12/15 00:32:23;;;;;;;;;;;5.10;99.90;;;5.27;69.59;99796.00;6040492;23;19918;-79
2021/12/15 00:34:51;;;;;;;;;;;5.20;99.90;;;5.20;70.37;99793.31;6040624;23;20427;-79
2021/12/15 00:37:20;;;;;;;;;;;5.30;99.90;;;5.19;70.35;99788.13;6087813;23;19922;-79
2021/12/15 00:39:47;;;;;;;;;;;5.30;99.90;;;5.21;70.10;99794.94;6073188;23;19922;-79
2021/12/15 00:42:13;;;;;;;;;;;5.30;99.90;;;5.24;70.33;99799.09;6064406;23;19948;-79
2021/12/15 00:44:39;;;;;;;;;;;5.40;99.90;;;5.25;70.01;99808.81;6016157;23;19921;-79
2021/12/15 00:47:05;;;;;;;;;;;5.30;99.90;;;5.28;70.26;99815.63;6016253;23;19921;-79
2021/12/15 00:49:32;;;;;;;;;;;5.40;99.90;;;5.23;69.98;99816.28;6063946;23;20004;-79
2021/12/15 00:51:57;;;;;;;;;;;5.40;99.90;;;5.27;69.98;99814.00;6063663;23;20012;-79
2021/12/15 00:54:23;;;;;;;;;;;5.40;99.90;;;5.30;69.64;99803.63;6039741;23;19922;-79
2021/12/15 00:56:51;;;;;;;;;;;5.40;99.90;;;5.32;69.77;99806.09;6016417;23;20057;-79
2021/12/15 00:59:16;;;;;;;;;;;5.40;99.90;;;5.31;69.91;99802.56;6040466;23;20318;-79
2021/12/15 01:01:42;;;;;;;;;;;5.40;99.90;;;5.34;69.75;99802.16;6016542;23;19932;-79
2021/12/15 01:04:10;;;;;;;;;;;5.50;99.90;;;5.39;69.76;99802.34;6015739;23;20021;-79
2021/12/15 01:06:36;;;;;;;;;;;5.50;99.90;;;5.38;70.00;99806.06;6039913;23;19922;-79
2021/12/15 01:09:04;;;;;;;;;;;5.50;99.90;;;5.33;69.65;99811.25;6064218;23;20348;-79
2021/12/15 01:19:53;;;;;;;;;;;5.40;99.90;;;5.23;69.87;99808.19;6043262;23;20365;-79
2021/12/15 01:22:40;;;;;;;;;;;5.40;99.90;;;5.25;70.29;99808.81;6031224;23;20342;-79
2021/12/15 01:25:26;;;;;;;;;;;5.40;99.90;;;5.14;70.10;99796.88;6063667;23;19928;-79
2021/12/15 01:27:52;;;;;;;;;;;5.30;99.90;;;5.28;69.59;99797.63;6072824;23;20052;-79
2021/12/15 01:30:21;;;;;;;;;;;5.30;99.90;;;5.16;70.25;99799.34;6040407;23;20230;-79
2021/12/15 01:32:47;;;;;;;;;;;5.30;99.90;;;5.11;70.83;99805.34;6039230;23;19918;-79
2021/12/15 01:35:14;;;;;;;;;;;5.20;99.90;;;5.03;70.55;99804.78;6016550;23;19964;-79
2021/12/15 01:37:43;;;;;;;;;;;5.10;99.90;;;5.04;70.97;99807.25;6040160;23;19973;-79
2021/12/15 01:40:14;;;;;;;;;;;5.20;99.90;;;5.08;71.06;99811.16;6039495;23;19921;-79
2021/12/15 01:42:40;;;;;;;;;;;5.20;99.90;;;5.05;70.49;99806.22;6027261;23;20004;-79
2021/12/15 01:48:18;;;;;;;;;;;5.10;99.90;;;5.13;70.30;99805.16;6052744;23;19944;-79
2021/12/15 01:50:44;;;;;;;;;;;5.20;99.90;;;5.10;69.80;99803.72;6058626;23;20365;-79
2021/12/15 01:53:11;;;;;;;;;;;5.20;99.90;;;5.04;69.50;99807.25;6039259;23;19921;-79
2021/12/15 01:55:37;;;;;;;;;;;5.10;99.90;;;4.98;70.24;99808.91;6039238;23;19928;-79
2021/12/15 01:58:02;;;;;;;;;;;5.10;99.90;;;5.01;69.83;99796.91;6015913;23;20531;-79
2021/12/15 02:00:36;;;;;;;;;;;5.10;99.90;;;4.99;70.23;99797.13;6040207;23;19953;-79
2021/12/15 02:03:02;;;;;;;;;;;5.10;99.90;;;5.02;69.89;99793.19;6039031;23;20238;-79
2021/12/15 02:05:28;;;;;;;;;;;5.10;99.90;;;5.05;69.64;99802.69;6015093;23;19937;-79
2021/12/15 02:07:54;;;;;;;;;;;5.10;99.90;;;5.08;69.50;99804.97;6039668;23;20388;-79
2021/12/15 02:10:22;;;;;;;;;;;5.10;99.90;;;5.09;69.17;99799.38;6063617;23;19924;-79
2021/12/15 02:12:48;;;;;;;;;;;5.10;99.90;;;5.04;69.20;99809.09;6063327;23;20243;-79
2021/12/15 02:15:17;;;;;;;;;;;5.00;99.90;;;5.04;69.45;99807.25;6038957;23;19977;-79
2021/12/15 02:17:43;;;;;;;;;;;5.10;99.90;;;5.04;69.11;99811.78;6039351;23;19944;-79
2021/12/15 02:20:10;;;;;;;;;;;5.00;99.90;;;5.09;69.49;99807.44;6063615;23;20016;-79
2021/12/15 02:22:36;;;;;;;;;;;5.00;99.90;;;5.13;68.84;99816.72;6040260;23;20389;-79
2021/12/15 02:25:04;;;;;;;;;;;5.10;99.90;;;5.10;69.27;99819.84;6063027;23;19925;-79
2021/12/15 02:27:34;;;;;;;;;;;5.10;99.90;;;5.13;69.62;99819.41;6040141;23;19922;-79
2021/12/15 02:30:17;;;;;;;;;;;5.10;99.90;;;5.10;69.27;99817.16;6049820;23;20024;-79
2021/12/15 02:33:09;;;;;;;;;;;5.10;99.90;;;5.11;69.83;99818.78;6055086;23;20318;-79
2021/12/15 02:38:28;;;;;;;;;;;5.10;99.90;;;4.95;70.67;99838.09;6048249;23;19927;-79
2021/12/15 02:40:54;;;;;;;;;;;5.00;99.90;;;4.87;71.58;99839.16;6049246;23;19965;-79
2021/12/15 02:43:19;;;;;;;;;;;5.00;99.90;;;4.94;71.18;99836.47;6039888;23;19934;-79
2021/12/15 02:45:45;;;;;;;;;;;4.90;99.90;;;4.90;70.93;99827.16;6038145;23;19921;-79
2021/12/15 02:48:11;;;;;;;;;;;4.90;99.90;;;4.88;71.47;99835.41;6063291;23;19917;-79
2021/12/15 02:50:37;;;;;;;;;;;5.00;99.90;;;4.83;71.04;99827.16;6041047;23;20378;-79
2021/12/15 02:53:03;;;;;;;;;;;4.90;99.90;;;4.90;71.34;99827.97;6016956;23;19925;-79
2021/12/15 02:55:29;;;;;;;;;;;5.00;99.90;;;4.99;71.43;99815.13;6041703;23;19929;-79
2021/12/15 02:57:55;;;;;;;;;;;5.00;99.90;;;5.00;71.12;99819.47;6064675;23;20004;-79
2021/12/15 03:00:25;;;;;;;;;;;5.10;99.90;;;5.08;71.40;99829.97;6017435;23;19926;-79
2021/12/15 03:06:24;;;;;;;;;;;5.10;99.90;;;5.27;70.73;99848.97;5983040;23;19953;-79
2021/12/15 03:08:54;;;;;;;;;;;5.20;99.90;;;5.30;70.64;99849.34;6040653;23;20387;-79
2021/12/15 03:16:49;;;;;;;;;;;5.40;99.90;;;5.35;70.81;99851.41;6055232;23;20519;-79
2021/12/15 03:19:15;;;;;;;;;;;5.40;99.90;;;5.38;70.49;99854.50;6065123;23;19992;-79
2021/12/15 03:21:41;;;;;;;;;;;5.50;99.90;;;5.42;70.57;99842.28;6017888;23;19921;-79
2021/12/15 03:24:15;;;;;;;;;;;5.50;99.90;;;5.52;69.79;99851.72;6040919;23;20616;-79
2021/12/15 03:26:50;;;;;;;;;;;5.50;99.90;;;5.55;69.82;99854.84;6051424;23;19959;-79
2021/12/15 03:35:19;;;;;;;;;;;5.60;99.90;;;5.50;69.75;99860.03;6055002;23;20528;-79
2021/12/15 03:37:52;;;;;;;;;;;5.60;99.90;;;5.44;69.72;99859.03;6046796;23;20013;-79
2021/12/15 03:40:21;;;;;;;;;;;5.60;99.90;;;5.48;69.88;99858.59;6074075;23;19917;-79
2021/12/15 03:42:54;;;;;;;;;;;5.60;99.90;;;5.43;69.75;99865.44;6041902;23;20314;-79
2021/12/15 03:45:26;;;;;;;;;;;5.60;99.90;;;5.34;70.36;99863.19;6074390;23;19926;-79
2021/12/15 03:47:53;;;;;;;;;;;5.50;99.90;;;5.41;69.98;99866.69;6064646;23;19926;-79
2021/12/15 03:50:20;;;;;;;;;;;5.50;99.90;;;5.44;69.45;99861.72;6041693;23;19928;-79
2021/12/15 03:52:49;;;;;;;;;;;5.50;99.90;;;5.53;69.06;99869.53;6041621;23;19929;-79
2021/12/15 03:55:20;;;;;;;;;;;5.50;99.90;;;5.53;69.47;99866.84;6042208;23;19957;-79
2021/12/15 03:57:46;;;;;;;;;;;5.50;99.90;;;5.53;69.57;99867.69;6051599;23;19933;-79
2021/12/15 04:00:13;;;;;;;;;;;5.60;99.90;;;5.55;68.97;99868.28;6065105;23;19917;-79
2021/12/15 04:02:42;;;;;;;;;;;5.60;99.90;;;5.53;69.07;99873.06;6041139;23;19928;-79
2021/12/15 04:05:09;;;;;;;;;;;5.60;99.90;;;5.49;69.15;99879.06;6041136;23;20242;-79
2021/12/15 04:07:37;;;;;;;;;;;5.60;99.90;;;5.53;69.25;99874.94;6041069;23;19929;-79
2021/12/15 04:10:06;;;;;;;;;;;5.60;99.90;;;5.51;69.61;99879.69;6040656;23;19921;-79
2021/12/15 04:12:32;;;;;;;;;;;5.60;99.90;;;5.47;69.74;99881.16;6040415;23;19979;-79
2021/12/15 04:15:19;;;;;;;;;;;5.60;99.90;;;5.47;69.51;99878.47;6064023;23;19927;-79
2021/12/15 04:17:46;;;;;;;;;;;5.60;99.90;;;5.54;69.58;99877.38;6055233;23;19940;-79
2021/12/15 04:20:15;;;;;;;;;;;5.60;99.90;;;5.52;69.30;99879.50;6040637;23;19921;-79
2021/12/15 04:22:41;;;;;;;;;;;5.60;99.90;;;5.51;69.63;99871.63;6041267;23;19929;-79
2021/12/15 04:25:09;;;;;;;;;;;5.60;99.90;;;5.48;69.40;99872.06;6040155;23;19921;-79
2021/12/15 04:27:36;;;;;;;;;;;5.60;99.90;;;5.53;69.09;99874.94;6040660;23;20253;-79
2021/12/15 04:30:05;;;;;;;;;;;5.60;99.90;;;5.34;69.62;99873.97;6041258;23;19941;-79
2021/12/15 04:32:36;;;;;;;;;;;5.60;99.90;;;5.29;69.56;99880.00;6043253;23;19921;-79
2021/12/15 04:35:02;;;;;;;;;;;5.50;99.90;;;5.29;69.81;99877.31;6040616;23;20318;-80
2021/12/15 04:37:28;;;;;;;;;;;5.50;99.90;;;5.35;70.33;99870.25;6064622;23;19941;-79
2021/12/15 04:39:54;;;;;;;;;;;5.50;99.90;;;5.30;70.31;99873.56;6051190;23;20345;-79
2021/12/15 04:42:22;;;;;;;;;;;5.50;99.90;;;5.30;70.03;99881.63;6017117;23;19929;-79
2021/12/15 04:44:49;;;;;;;;;;;5.50;99.90;;;5.29;70.34;99880.00;6014808;23;19937;-80
2021/12/15 04:47:15;;;;;;;;;;;5.50;99.90;;;5.25;69.94;99889.53;6039988;23;19917;-79
2021/12/15 04:49:50;;;;;;;;;;;5.50;99.90;;;5.26;70.05;99883.09;6038899;23;20406;-78
2021/12/15 04:52:21;;;;;;;;;;;5.40;99.90;;;5.26;70.62;99880.41;6038471;23;20012;-79
2021/12/15 04:54:47;;;;;;;;;;;5.40;99.90;;;5.30;70.31;99896.97;6049453;23;19921;-79
2021/12/15 04:57:14;;;;;;;;;;;5.40;99.90;;;5.34;70.51;99892.78;6040008;23;19977;-79
2021/12/15 04:59:40;;;;;;;;;;;5.40;99.90;;;5.35;70.26;99889.91;6039763;23;20008;-79
2021/12/15 05:02:06;;;;;;;;;;;5.40;99.90;;;5.43;70.24;99894.22;6016105;23;19917;-79
2021/12/15 05:04:32;;;;;;;;;;;5.50;99.90;;;5.42;70.48;99909.53;6061993;23;19921;-79
2021/12/15 05:06:58;;;;;;;;;;;5.50;99.90;;;5.41;70.23;99910.56;6014224;23;20366;-79
2021/12/15 05:09:24;;;;;;;;;;;5.50;99.90;;;5.40;70.25;99908.91;6062973;23;19921;-79
2021/12/15 05:11:50;;;;;;;;;;;5.40;99.90;;;5.42;69.71;99904.16;6036990;23;19964;-79
2021/12/15 05:14:18;;;;;;;;;;;5.50;99.90;;;5.46;70.02;99906.41;6012317;23;20342;-79
2021/12/15 05:16:44;;;;;;;;;;;5.50;99.90;;;5.48;69.61;99909.72;6035708;23;19968;-79
2021/12/15 05:19:10;;;;;;;;;;;5.50;99.90;;;5.51;69.46;99912.81;6035703;23;20338;-79
2021/12/15 05:21:36;;;;;;;;;;;5.50;99.90;;;5.50;69.24;99913.03;6035899;23;20012;-79
2021/12/15 05:24:12;;;;;;;;;;;5.60;99.90;;;5.50;69.89;99913.84;6059011;23;20645;-79
2021/12/15 05:26:38;;;;;;;;;;;5.50;99.90;;;5.49;69.35;99908.69;6016131;23;19921;-79
2021/12/15 05:29:04;;;;;;;;;;;5.50;99.90;;;5.57;69.27;99916.50;6013397;23;19921;-79
2021/12/15 05:31:30;;;;;;;;;;;5.50;99.90;;;5.56;69.58;99914.88;6061597;23;19957;-79
2021/12/15 05:33:56;;;;;;;;;;;5.60;99.90;;;5.56;69.26;99912.16;6037170;23;20492;-79
2021/12/15 05:36:22;;;;;;;;;;;5.60;99.90;;;5.51;69.38;99912.00;6013263;23;20207;-79
2021/12/15 05:38:48;;;;;;;;;;;5.60;99.90;;;5.50;69.76;99908.47;6037182;23;19918;-79
2021/12/15 05:41:15;;;;;;;;;;;5.60;99.90;;;5.51;69.23;99907.44;6037564;23;20004;-79
2021/12/15 05:43:41;;;;;;;;;;;5.60;99.90;;;5.47;70.00;99899.97;6061277;23;20265;-79
2021/12/15 05:46:07;;;;;;;;;;;5.60;99.90;;;5.50;69.43;99910.34;6084293;23;19925;-79
2021/12/15 05:48:33;;;;;;;;;;;5.60;99.90;;;5.42;69.41;99906.84;6037631;23;20346;-79
2021/12/15 05:50:59;;;;;;;;;;;5.50;99.90;;;5.44;69.47;99903.94;6037584;23;19940;-79
2021/12/15 05:53:25;;;;;;;;;;;5.50;99.90;;;5.48;69.52;99915.09;6014278;23;19917;-83
2021/12/15 05:55:51;;;;;;;;;;;5.50;99.90;;;5.53;69.77;99924.19;6013904;23;20308;-83
2021/12/15 05:58:17;;;;;;;;;;;5.50;99.90;;;5.54;69.61;99930.41;6014035;23;19929;-83
2021/12/15 06:00:43;;;;;;;;;;;5.50;99.90;;;5.53;69.67;99928.75;6014206;23;19932;-84
2021/12/15 06:03:09;;;;;;;;;;;5.60;99.90;;;5.64;69.73;99928.91;6037690;23;19941;-84
2021/12/15 06:05:35;;;;;;;;;;;5.60;99.90;;;5.70;68.88;99940.69;6037750;23;20641;-84
2021/12/15 06:08:02;;;;;;;;;;;5.70;99.90;;;5.65;68.68;99935.13;6014747;23;19921;-83
2021/12/15 06:10:28;;;;;;;;;;;5.70;99.90;;;5.59;68.12;99944.03;6038094;23;19987;-83
2021/12/15 06:12:55;;;;;;;;;;;5.60;99.90;;;5.51;68.56;99938.91;6013941;23;20273;-83
2021/12/15 06:15:23;;;;;;;;;;;5.50;99.90;;;5.49;68.53;99938.28;6038071;23;19953;-83
2021/12/15 06:17:56;;;;;;;;;;;5.40;99.90;;;5.44;68.44;99933.53;6038091;23;19918;-83
2021/12/15 06:20:22;;;;;;;;;;;5.50;99.90;;;5.41;69.14;99940.16;6047577;23;20243;-83
2021/12/15 06:22:48;;;;;;;;;;;5.50;99.90;;;5.42;68.24;99947.22;6014765;23;19922;-83
2021/12/15 06:25:14;;;;;;;;;;;5.40;99.90;;;5.38;68.87;99943.28;6041133;23;19921;-83
2021/12/15 06:27:40;;;;;;;;;;;5.40;99.90;;;5.37;69.00;99940.81;6042012;23;19969;-83
2021/12/15 06:30:07;;;;;;;;;;;5.30;99.90;;;5.41;68.66;99950.09;6018146;23;19984;-83
2021/12/15 06:32:34;;;;;;;;;;;5.40;99.90;;;5.33;68.93;99953.03;6040927;23;19949;-83
2021/12/15 06:34:59;;;;;;;;;;;5.30;99.90;;;5.23;69.06;99948.09;6064623;23;20143;-83
2021/12/15 06:37:26;;;;;;;;;;;5.30;99.90;;;5.25;69.36;99950.56;6016756;23;19921;-83
2021/12/15 06:39:52;;;;;;;;;;;5.20;99.90;;;5.25;69.62;99945.19;6041980;23;19965;-82
2021/12/15 06:42:18;;;;;;;;;;;5.20;99.90;;;5.23;69.14;99954.28;6042429;23;19921;-82
2021/12/15 06:44:44;;;;;;;;;;;5.20;99.90;;;5.28;69.65;99956.34;6065043;23;19922;-82
2021/12/15 06:58:24;;;;;;;;;;;5.20;99.90;;;5.22;69.72;99970.66;6053679;23;19926;-82
2021/12/15 07:00:52;;;;;;;;;;;5.20;99.90;;;5.24;70.13;99973.97;6064962;23;19949;-82
2021/12/15 07:03:18;;;;;;;;;;;5.20;99.90;;;5.28;70.24;99974.38;6041347;23;20008;-82
2021/12/15 07:05:44;;;;;;;;;;;5.20;99.90;;;5.36;70.04;99977.63;6041701;23;20478;-82
2021/12/15 07:08:11;;;;;;;;;;;5.30;99.90;;;5.36;70.05;99982.19;6040923;23;19922;-82
2021/12/15 07:10:39;;;;;;;;;;;5.40;99.90;;;5.52;70.13;99978.22;6066311;23;19926;-82
2021/12/15 07:13:05;;;;;;;;;;;5.50;99.90;;;5.67;69.34;99978.78;6018221;23;19921;-82
2021/12/15 07:15:33;;;;;;;;;;;5.60;99.90;;;5.63;69.31;99982.97;6042132;23;19992;-82
2021/12/15 07:18:03;;;;;;;;;;;5.70;99.90;;;5.63;69.11;99985.66;6041307;23;20237;-82
2021/12/15 07:23:00;;;;;;;;;;;5.70;99.90;;;5.58;69.72;99991.66;6065197;23;20283;-82
2021/12/15 07:25:26;;;;;;;;;;;5.70;99.90;;;5.54;69.89;99995.00;6038895;23;19941;-82
2021/12/15 07:27:52;;;;;;;;;;;5.70;99.90;;;5.53;69.45;99993.34;6065271;23;20004;-82
2021/12/15 07:30:18;;;;;;;;;;;5.60;99.90;;;5.53;69.35;100001.41;6017249;23;19921;-82
2021/12/15 07:32:44;;;;;;;;;;;5.60;99.90;;;5.56;69.77;100001.00;6041919;23;20242;-82
2021/12/15 07:35:10;;;;;;;;;;;5.60;99.90;;;5.62;70.00;100002.81;6041899;23;20250;-82
2021/12/15 07:37:36;;;;;;;;;;;5.70;99.90;;;5.75;69.37;100000.13;6015646;23;19957;-82
2021/12/15 07:40:05;;;;;;;;;;;5.80;99.90;;;5.74;69.39;99998.44;6052201;23;20287;-82
2021/12/15 07:42:41;;;;;;;;;;;5.90;99.90;;;5.78;69.26;100002.38;6042760;23;19921;-82
2021/12/15 07:45:07;;;;;;;;;;;5.90;99.90;;;5.84;69.30;99995.31;6052698;23;19929;-82
2021/12/15 07:47:34;;;;;;;;;;;6.00;99.90;;;5.91;69.11;100000.69;6041568;23;19929;-82
2021/12/15 07:50:01;;;;;;;;;;;6.00;99.90;;;5.85;69.03;100022.03;6042431;23;20500;-82
2021/12/15 07:52:27;;;;;;;;;;;6.00;99.90;;;5.90;69.22;100025.94;6065887;23;19921;-82
2021/12/15 07:54:53;;;;;;;;;;;6.10;99.90;;;6.02;68.98;100026.97;6041148;23;19945;-82
2021/12/15 07:57:23;;;;;;;;;;;6.10;99.90;;;6.11;68.88;100039.16;6041838;23;19964;-82
2021/12/15 07:59:49;;;;;;;;;;;6.20;99.90;;;6.04;68.89;100033.78;6040954;23;19921;-82
2021/12/15 08:02:16;;;;;;;;;;;6.20;99.90;;;5.94;69.45;100043.38;6040137;23;19921;-82
2021/12/15 08:04:41;;;;;;;;;;;6.10;99.90;;;5.98;68.92;100040.03;6040606;23;19929;-82
2021/12/15 08:07:08;;;;;;;;;;;6.10;99.90;;;5.95;69.68;100043.13;6037618;23;19964;-82
2021/12/15 08:09:34;;;;;;;;;;;6.20;99.90;;;5.97;69.40;100048.31;6037800;23;19956;-82
2021/12/15 08:12:00;;;;;;;;;;;6.20;99.90;;;5.96;68.85;100058.28;6013291;23;19926;-82
2021/12/15 08:14:26;;;;;;;;;;;6.10;99.90;;;5.94;68.92;100057.66;6013900;23;19928;-82
2021/12/15 08:16:52;;;;;;;;;;;6.20;99.90;;;5.88;69.39;100067.38;6039459;23;20603;-82
2021/12/15 08:19:19;;;;;;;;;;;6.10;99.90;;;5.77;69.91;100062.63;6039771;23;19921;-82
2021/12/15 08:21:45;;;;;;;;;;;6.00;99.90;;;5.80;69.47;100067.63;6039647;23;19964;-82
2021/12/15 08:24:11;;;;;;;;;;;5.90;99.90;;;5.81;70.05;100071.94;6042048;23;20048;-82
2021/12/15 08:26:37;;;;;;;;;;;6.00;99.90;;;5.85;70.33;100062.44;6041379;23;19946;-82
2021/12/15 08:29:03;;;;;;;;;;;6.00;99.90;;;5.89;69.92;100068.19;6016817;23;19927;-82
2021/12/15 08:31:29;;;;;;;;;;;6.00;99.90;;;5.95;70.03;100071.94;6065395;23;19996;-82
2021/12/15 08:33:55;;;;;;;;;;;6.10;99.90;;;5.91;70.04;100068.00;6040102;23;20338;-82
2021/12/15 08:36:21;;;;;;;;;;;6.10;99.90;;;6.02;70.16;100061.97;6015915;23;19921;-82
2021/12/15 08:38:48;;;;;;;;;;;6.20;99.90;;;6.23;70.15;100056.31;6016189;23;19941;-82
2021/12/15 08:41:16;;;;;;;;;;;6.30;99.90;;;6.36;69.48;100059.94;6039723;23;19924;-82
2021/12/15 08:43:42;;;;;;;;;;;6.40;99.90;;;6.35;69.50;100055.63;6039398;23;19925;-81
2021/12/15 08:46:21;;;;;;;;;;;6.60;99.90;;;6.38;69.56;100056.00;6034506;23;20261;-82
2021/12/15 08:48:47;;;;;;;;;;;6.60;99.90;;;6.52;69.32;100056.78;6047494;23;19928;-82
2021/12/15 08:51:14;;;;;;;;;;;6.70;99.90;;;6.69;69.24;100057.06;6037968;23;19961;-82
2021/12/15 08:53:41;;;;;;;;;;;6.80;99.90;;;6.81;68.06;100068.00;6061683;23;20345;-82
2021/12/15 08:56:08;;;;;;;;;;;6.90;99.90;;;6.86;68.17;100062.78;6039221;23;19929;-82
2021/12/15 08:58:34;;;;;;;;;;;6.90;99.90;;;6.91;67.49;100060.25;6040413;23;20013;-82
2021/12/15 09:01:04;;;;;;;;;;;7.00;99.90;;;7.04;67.26;100053.91;6036336;23;20123;-82
2021/12/15 09:03:30;;;;;;;;;;;7.10;99.90;;;7.14;67.65;100059.66;6015098;23;19929;-82
2021/12/15 09:05:57;;;;;;;;;;;7.20;99.90;;;7.25;67.44;100055.41;6014347;23;20011;-82
2021/12/15 09:08:23;;;;;;;;;;;7.40;99.90;;;7.18;66.82;100055.47;6038678;23;20158;-82
2021/12/15 09:10:51;;;;;;;;;;;7.40;99.90;;;7.19;67.23;100057.13;6015118;23;20270;-82
2021/12/15 09:13:17;;;;;;;;;;;7.40;99.90;;;7.29;67.06;100059.31;6039479;23;19944;-82
2021/12/15 09:15:43;;;;;;;;;;;7.40;99.90;;;7.39;67.22;100067.75;6060987;23;19992;-82
2021/12/15 09:18:09;;;;;;;;;;;7.50;99.90;;;7.34;66.88;100060.31;6038873;23;20262;-82
2021/12/15 09:20:36;;;;;;;;;;;7.50;99.90;;;7.41;66.37;100064.84;6014234;23;20258;-83
2021/12/15 09:23:08;;;;;;;;;;;7.50;99.90;;;7.54;65.90;100064.69;6014345;23;20199;-82
2021/12/15 09:25:35;;;;;;;;;;;7.50;99.90;;;7.55;65.49;100071.75;6047846;23;19921;-82
2021/12/15 09:28:02;;;;;;;;;;;7.60;99.90;;;7.56;65.75;100068.84;6060761;23;19921;-82
2021/12/15 09:30:29;;;;;;;;;;;7.70;99.90;;;7.52;65.83;100078.41;6061013;23;20357;-82
2021/12/15 09:32:55;;;;;;;;;;;7.70;99.90;;;7.65;65.25;100068.53;6035869;23;20606;-82
2021/12/15 09:35:24;;;;;;;;;;;7.70;99.90;;;7.69;65.20;100054.38;6013953;23;19932;-82
2021/12/15 09:37:50;;;;;;;;;;;7.80;99.90;;;7.75;65.21;100055.34;6062145;23;19940;-82
2021/12/15 09:40:17;;;;;;;;;;;7.90;99.90;;;7.77;65.86;100050.53;6045432;23;19961;-82
2021/12/15 09:42:43;;;;;;;;;;;7.90;99.90;;;7.83;65.04;100046.94;6037742;23;19956;-82
2021/12/15 10:04:33;;;;;;;;;;;7.90;99.90;;;7.67;65.33;100047.53;6049652;23;19972;-82
2021/12/15 10:19:52;;;;;;;;;;;8.10;99.90;;;7.86;65.95;100030.28;6039195;23;19963;-81
2021/12/15 10:25:24;;;;;;;;;;;8.20;99.90;;;8.04;65.92;100037.56;6062544;23;19945;-81
2021/12/15 10:28:03;;;;;;;;;;;8.20;99.90;;;8.13;65.72;100046.19;6064969;23;19921;-82
2021/12/15 10:30:30;;;;;;;;;;;8.30;99.90;;;8.17;64.82;100050.09;6071313;23;19969;-81
2021/12/15 10:33:02;;;;;;;;;;;8.30;99.90;;;7.93;64.39;100054.50;6086169;23;20342;-81
2021/12/15 10:35:39;;;;;;;;;;;8.10;99.90;;;7.69;65.25;100046.25;6045048;23;19921;-81
2021/12/15 10:38:21;;;;;;;;;;;7.90;99.90;;;7.64;66.08;100029.09;6068491;23;19948;-81
2021/12/15 10:40:59;;;;;;;;;;;7.80;99.90;;;7.63;66.23;100024.72;6048127;23;19921;-81
2021/12/15 10:43:50;;;;;;;;;;;7.80;99.90;;;7.63;66.14;100008.50;6047573;23;19928;-81
2021/12/15 10:46:16;;;;;;;;;;;7.80;99.90;;;7.61;66.44;100012.28;6021586;23;19926;-81
2021/12/15 10:48:59;;;;;;;;;;;7.80;99.90;;;7.59;66.47;100014.38;6037484;23;20013;-81
2021/12/15 10:51:47;;;;;;;;;;;7.80;99.90;;;7.69;66.16;100013.03;6046752;23;19924;-81
2021/12/15 10:54:28;;;;;;;;;;;7.80;99.90;;;7.89;65.85;100015.50;6051729;23;20100;-81
2021/12/15 10:57:05;;;;;;;;;;;7.90;99.90;;;7.94;65.69;100013.78;6070852;23;19922;-81
2021/12/15 10:59:33;;;;;;;;;;;7.90;99.90;;;7.95;65.21;100023.53;6062229;23;19933;-81
2021/12/15 11:02:07;;;;;;;;;;;8.00;99.90;;;7.97;64.86;100026.00;6044113;23;20297;-81
2021/12/15 11:04:36;;;;;;;;;;;8.00;99.90;;;7.94;65.20;100015.66;6015670;23;19972;-81
2021/12/15 11:07:09;;;;;;;;;;;8.00;99.90;;;7.94;65.46;100019.19;6086359;23;19921;-81
2021/12/15 11:09:39;;;;;;;;;;;8.00;99.90;;;7.93;66.29;100014.81;6063092;23;20008;-81
2021/12/15 11:12:11;;;;;;;;;;;8.10;99.90;;;8.12;66.77;100001.28;6063348;23;19921;-81
2021/12/15 11:14:41;;;;;;;;;;;8.20;99.90;;;8.30;66.32;100003.13;6041013;23;19970;-81
2021/12/15 11:17:10;;;;;;;;;;;8.30;99.90;;;8.40;65.38;99993.44;6040603;23;20405;-81
2021/12/15 11:19:59;;;;;;;;;;;8.40;99.90;;;8.45;65.44;99990.88;6066185;23;19921;-81
2021/12/15 11:22:45;;;;;;;;;;;8.50;99.90;;;8.56;65.56;99997.38;6050780;23;19980;-81
2021/12/15 11:25:29;;;;;;;;;;;8.60;99.90;;;8.62;65.08;99992.91;6064727;23;19921;-81
2021/12/15 11:28:08;;;;;;;;;;;8.70;99.90;;;8.63;65.07;99995.38;6075319;23;19960;-81
2021/12/15 11:30:41;;;;;;;;;;;8.80;99.90;;;8.61;65.21;99989.38;6026914;23;19922;-81
2021/12/15 11:33:26;;;;;;;;;;;8.80;99.90;;;8.65;65.70;99990.56;6074728;23;19921;-81
2021/12/15 11:36:09;;;;;;;;;;;8.80;99.90;;;8.61;64.82;99991.25;6068937;23;19972;-81
2021/12/15 11:38:37;;;;;;;;;;;8.90;99.90;;;8.60;64.83;99986.91;6069117;23;19922;-81
2021/12/15 11:41:05;;;;;;;;;;;8.80;99.90;;;8.60;64.77;99982.34;6064517;23;19948;-81
2021/12/15 11:43:48;;;;;;;;;;;8.80;99.90;;;8.60;65.39;99985.03;6064403;23;19917;-81
2021/12/15 11:46:39;;;;;;;;;;;8.80;99.90;;;8.64;64.76;99979.97;6064977;23;20346;-81
2021/12/15 11:49:13;;;;;;;;;;;8.80;99.90;;;8.64;65.14;99982.69;6050642;23;19976;-81
2021/12/15 11:52:05;;;;;;;;;;;8.80;99.90;;;8.63;64.84;99991.88;6088679;23;19996;-81
2021/12/15 11:54:39;;;;;;;;;;;8.80;99.90;;;8.64;65.13;99994.31;6061577;23;20016;-81
2021/12/15 11:57:27;;;;;;;;;;;8.80;99.90;;;8.68;64.67;99995.50;6027012;23;19963;-81
2021/12/15 12:00:05;;;;;;;;;;;8.80;99.90;;;8.70;64.51;99989.84;6052415;23;19925;-81
2021/12/15 12:02:38;;;;;;;;;;;8.80;99.90;;;8.69;64.58;99993.63;6052333;23;19921;-81
2021/12/15 12:05:18;;;;;;;;;;;8.80;99.90;;;8.68;64.50;99992.81;6040316;23;20226;-81
2021/12/15 12:07:47;;;;;;;;;;;8.80;99.90;;;8.71;64.99;99982.59;6026916;23;19964;-81
2021/12/15 12:10:31;;;;;;;;;;;8.80;99.90;;;8.67;64.41;99983.03;6041545;23;19922;-81
2021/12/15 12:13:06;;;;;;;;;;;8.80;99.90;;;8.66;64.67;99977.88;6073092;23;19929;-81
2021/12/15 12:15:34;;;;;;;;;;;8.80;99.90;;;8.64;65.11;99974.56;6050832;23;20385;-81
2021/12/15 12:18:06;;;;;;;;;;;8.80;99.90;;;8.60;65.40;99987.75;6040594;23;19945;-81
2021/12/15 12:20:40;;;;;;;;;;;8.70;99.90;;;8.52;65.37;99982.63;6063941;23;19964;-81
2021/12/15 12:23:08;;;;;;;;;;;8.70;99.90;;;8.46;65.05;99978.16;6050424;23;19960;-81
2021/12/15 12:25:38;;;;;;;;;;;8.60;99.90;;;8.46;65.64;99987.09;6016597;23;20353;-81
2021/12/15 12:28:07;;;;;;;;;;;8.60;99.90;;;8.54;65.45;99979.72;6026774;23;19965;-81
2021/12/15 12:30:37;;;;;;;;;;;8.60;99.90;;;8.58;65.58;99989.03;6040856;23;19932;-81
2021/12/15 12:33:08;;;;;;;;;;;8.60;99.90;;;8.58;65.52;99978.22;6040643;23;19922;-81
2021/12/15 12:35:36;;;;;;;;;;;8.60;99.90;;;8.59;65.19;99971.72;6025063;23;20020;-81
2021/12/15 12:38:12;;;;;;;;;;;8.70;99.90;;;8.60;65.15;99981.47;6040084;23;20338;-81
2021/12/15 12:40:53;;;;;;;;;;;8.60;99.90;;;8.60;65.35;99985.03;6050395;23;19961;-81
2021/12/15 12:43:28;;;;;;;;;;;8.60;99.90;;;8.64;65.01;99975.38;6046808;23;20305;-81
2021/12/15 12:46:17;;;;;;;;;;;8.60;99.90;;;8.60;64.87;99963.41;6046482;23;20338;-81
2021/12/15 13:00:19;;;;;;;;;;;8.70;99.90;;;8.63;65.73;99948.59;6047122;23;20000;-81
2021/12/15 13:02:50;;;;;;;;;;;8.70;99.90;;;8.60;65.42;99951.72;6086783;23;19973;-81
2021/12/15 13:05:28;;;;;;;;;;;8.70;99.90;;;8.51;66.09;99953.16;6038913;23;20374;-81
2021/12/15 13:07:56;;;;;;;;;;;8.60;99.90;;;8.45;65.85;99954.91;6036757;23;19925;-81
2021/12/15 13:10:49;;;;;;;;;;;8.60;99.90;;;8.38;65.79;99960.38;6038266;23;19921;-81